sensor_id;sensor_type;location;lat;lon;timestamp;pressure;altitude;pressure_sealevel;temperature;humidity
3917;BME280;1973;50.518;7.318;2023-02-02T00:01:22;101394.44;;;9.23;100.00
3917;BME280;1973;50.518;7.318;2023-02-02T00:03:49;101405.03;;;9.26;100.00
3917;BME280;1973;50.518;7.318;2023-02-02T00:06:20;101404.66;;;9.29;100.00
3917;BME280;1973;50.518;7.318;2023-02-02T00:08:47;101400.88;;;9.31;100.00
3917;BME280;1973;50.518;7.318;2023-02-02T00:11:15;101399.72;;;9.25;100.00
3917;BME280;1973;50.518;7.318;2023-02-02T00:13:41;101400.41;;;9.27;100.00
3917;BME280;1973;50.518;7.318;2023-02-02T00:18:59;101389.31;;;9.20;100.00
3917;BME280;1973;50.518;7.318;2023-02-02T00:21:26;101405.78;;;9.20;100.00
3917;BME280;1973;50.518;7.318;2023-02-02T00:23:52;101407.97;;;9.25;100.00
3917;BME280;1973;50.518;7.318;2023-02-02T00:26:19;101416.44;;;9.23;100.00
3917;BME280;1973;50.518;7.318;2023-02-02T00:28:47;101415.09;;;9.19;100.00
3917;BME280;1973;50.518;7.318;2023-02-02T00:31:13;101415.09;;;9.19;100.00
3917;BME280;1973;50.518;7.318;2023-02-02T00:33:44;101418.19;;;9.16;100.00
3917;BME280;1973;50.518;7.318;2023-02-02T00:36:10;101412.72;;;9.16;100.00
3917;BME280;1973;50.518;7.318;2023-02-02T00:38:37;101408.28;;;9.15;100.00
3917;BME280;1973;50.518;7.318;2023-02-02T00:41:04;101411.69;;;9.17;100.00
3917;BME280;1973;50.518;7.318;2023-02-02T00:43:30;101407.03;;;9.18;100.00
3917;BME280;1973;50.518;7.318;2023-02-02T00:45:57;101417.63;;;9.21;100.00
3917;BME280;1973;50.518;7.318;2023-02-02T00:48:23;101396.72;;;9.20;100.00
3917;BME280;1973;50.518;7.318;2023-02-02T00:50:52;101395.59;;;9.14;100.00
3917;BME280;1973;50.518;7.318;2023-02-02T00:53:18;101408.28;;;9.15;100.00
3917;BME280;1973;50.518;7.318;2023-02-02T00:55:45;101401.72;;;9.16;100.00
3917;BME280;1973;50.518;7.318;2023-02-02T00:58:11;101407.03;;;9.18;100.00
3917;BME280;1973;50.518;7.318;2023-02-02T01:00:38;101400.50;;;9.19;100.00
3917;BME280;1973;50.518;7.318;2023-02-02T01:03:05;101417.84;;;9.19;100.00
3917;BME280;1973;50.518;7.318;2023-02-02T01:05:33;101407.72;;;9.20;100.00
3917;BME280;1973;50.518;7.318;2023-02-02T01:08:00;101404.59;;;9.23;100.00
3917;BME280;1973;50.518;7.318;2023-02-02T01:10:26;101402.41;;;9.18;100.00
3917;BME280;1973;50.518;7.318;2023-02-02T01:12:52;101407.72;;;9.20;100.00
3917;BME280;1973;50.518;7.318;2023-02-02T01:15:19;101407.91;;;9.18;100.00
3917;BME280;1973;50.518;7.318;2023-02-02T01:17:46;101409.59;;;9.19;100.00
3917;BME280;1973;50.518;7.318;2023-02-02T01:20:18;101404.13;;;9.19;100.00
3917;BME280;1973;50.518;7.318;2023-02-02T01:22:45;101403.72;;;9.22;100.00
3917;BME280;1973;50.518;7.318;2023-02-02T01:25:12;101399.47;;;9.20;100.00
3917;BME280;1973;50.518;7.318;2023-02-02T01:27:39;101389.69;;;9.17;100.00
3917;BME280;1973;50.518;7.318;2023-02-02T01:30:06;101396.91;;;9.18;100.00
3917;BME280;1973;50.518;7.318;2023-02-02T01:32:32;101388.50;;;9.20;100.00
3917;BME280;1973;50.518;7.318;2023-02-02T01:34:59;101400.59;;;9.25;100.00
3917;BME280;1973;50.518;7.318;2023-02-02T01:37:25;101395.28;;;9.24;100.00
3917;BME280;1973;50.518;7.318;2023-02-02T01:39:52;101395.47;;;9.22;100.00
3917;BME280;1973;50.518;7.318;2023-02-02T01:42:20;101400.59;;;9.25;100.00
3917;BME280;1973;50.518;7.318;2023-02-02T01:45:11;101402.47;;;9.25;100.00
3917;BME280;1973;50.518;7.318;2023-02-02T01:47:42;101420.00;;;9.24;100.00
3917;BME280;1973;50.518;7.318;2023-02-02T01:50:12;101414.16;;;9.27;100.00
3917;BME280;1973;50.518;7.318;2023-02-02T01:52:42;101418.41;;;9.29;100.00
3917;BME280;1973;50.518;7.318;2023-02-02T01:55:13;101419.44;;;9.28;100.00
3917;BME280;1973;50.518;7.318;2023-02-02T02:00:11;101423.13;;;9.21;100.00
3917;BME280;1973;50.518;7.318;2023-02-02T02:02:40;101420.38;;;9.21;100.00
3917;BME280;1973;50.518;7.318;2023-02-02T02:05:08;101422.88;;;9.16;100.00
3917;BME280;1973;50.518;7.318;2023-02-02T02:07:36;101416.53;;;9.15;100.00
3917;BME280;1973;50.518;7.318;2023-02-02T02:10:04;101426.19;;;9.11;100.00
3917;BME280;1973;50.518;7.318;2023-02-02T02:12:30;101421.47;;;9.05;100.00
3917;BME280;1973;50.518;7.318;2023-02-02T02:14:57;101428.47;;;9.08;100.00
3917;BME280;1973;50.518;7.318;2023-02-02T02:20:28;101424.56;;;9.02;100.00
3917;BME280;1973;50.518;7.318;2023-02-02T02:37:44;101429.50;;;8.92;100.00
3917;BME280;1973;50.518;7.318;2023-02-02T02:40:34;101437.44;;;8.87;100.00
3917;BME280;1973;50.518;7.318;2023-02-02T02:43:13;101429.69;;;8.91;100.00
3917;BME280;1973;50.518;7.318;2023-02-02T02:45:41;101431.59;;;8.90;100.00
3917;BME280;1973;50.518;7.318;2023-02-02T02:48:10;101433.50;;;8.90;100.00
3917;BME280;1973;50.518;7.318;2023-02-02T02:50:36;101434.81;;;8.94;100.00
3917;BME280;1973;50.518;7.318;2023-02-02T02:53:29;101422.97;;;8.93;100.00
3917;BME280;1973;50.518;7.318;2023-02-02T02:56:10;101418.03;;;8.89;100.00
3917;BME280;1973;50.518;7.318;2023-02-02T02:59:06;101424.78;;;8.86;100.00
3917;BME280;1973;50.518;7.318;2023-02-02T03:01:50;101411.69;;;8.88;100.00
3917;BME280;1973;50.518;7.318;2023-02-02T03:04:54;101420.78;;;8.89;100.00
3917;BME280;1973;50.518;7.318;2023-02-02T03:07:34;101422.69;;;8.88;100.00
3917;BME280;1973;50.518;7.318;2023-02-02T03:10:04;101420.97;;;8.87;100.00
3917;BME280;1973;50.518;7.318;2023-02-02T03:12:33;101419.94;;;8.88;100.00
3917;BME280;1973;50.518;7.318;2023-02-02T03:15:04;101420.78;;;8.89;100.00
3917;BME280;1973;50.518;7.318;2023-02-02T03:17:30;101417.19;;;8.88;100.00
3917;BME280;1973;50.518;7.318;2023-02-02T03:19:57;101423.53;;;8.89;100.00
3917;BME280;1973;50.518;7.318;2023-02-02T03:22:23;101417.88;;;8.90;100.00
3917;BME280;1973;50.518;7.318;2023-02-02T03:24:50;101424.41;;;8.89;100.00
3917;BME280;1973;50.518;7.318;2023-02-02T03:27:16;101427.78;;;8.91;100.00
3917;BME280;1973;50.518;7.318;2023-02-02T03:29:43;101426.59;;;8.94;100.00
3917;BME280;1973;50.518;7.318;2023-02-02T03:32:09;101427.44;;;8.94;100.00
3917;BME280;1973;50.518;7.318;2023-02-02T03:34:36;101422.31;;;8.91;100.00
3917;BME280;1973;50.518;7.318;2023-02-02T03:37:02;101415.94;;;8.91;100.00
3917;BME280;1973;50.518;7.318;2023-02-02T03:39:28;101433.28;;;8.91;100.00
3917;BME280;1973;50.518;7.318;2023-02-02T03:41:55;101419.94;;;8.88;100.00
3917;BME280;1973;50.518;7.318;2023-02-02T03:44:21;101417.88;;;8.90;100.00
3917;BME280;1973;50.518;7.318;2023-02-02T03:46:52;101426.75;;;8.92;100.00
3917;BME280;1973;50.518;7.318;2023-02-02T03:49:19;101438.78;;;8.91;100.00
3917;BME280;1973;50.518;7.318;2023-02-02T03:51:46;101441.25;;;8.86;100.00
3917;BME280;1973;50.518;7.318;2023-02-02T03:54:13;101429.88;;;8.89;100.00
3917;BME280;1973;50.518;7.318;2023-02-02T03:56:40;101435.75;;;8.86;100.00
3917;BME280;1973;50.518;7.318;2023-02-02T03:59:06;101452.25;;;8.86;100.00
3917;BME280;1973;50.518;7.318;2023-02-02T04:01:32;101443.41;;;8.76;100.00
3917;BME280;1973;50.518;7.318;2023-02-02T04:03:59;101448.72;;;8.77;100.00
3917;BME280;1973;50.518;7.318;2023-02-02T04:06:26;101455.91;;;8.78;100.00
3917;BME280;1973;50.518;7.318;2023-02-02T04:08:52;101467.38;;;8.82;100.00
3917;BME280;1973;50.518;7.318;2023-02-02T04:11:18;101457.25;;;8.83;100.00
3917;BME280;1973;50.518;7.318;2023-02-02T04:13:45;101472.56;;;8.77;100.00
3917;BME280;1973;50.518;7.318;2023-02-02T04:16:11;101449.09;;;8.74;100.00
3917;BME280;1973;50.518;7.318;2023-02-02T04:18:38;101467.47;;;8.74;100.00
3917;BME280;1973;50.518;7.318;2023-02-02T04:21:06;101468.00;;;8.69;100.00
3917;BME280;1973;50.518;7.318;2023-02-02T04:23:33;101464.78;;;8.66;100.00
3917;BME280;1973;50.518;7.318;2023-02-02T04:25:59;101453.81;;;8.66;100.00
3917;BME280;1973;50.518;7.318;2023-02-02T04:28:27;101460.72;;;8.62;100.00
3917;BME280;1973;50.518;7.318;2023-02-02T04:30:54;101463.44;;;8.62;100.00
3917;BME280;1973;50.518;7.318;2023-02-02T04:33:22;101470.34;;;8.58;100.00
3917;BME280;1973;50.518;7.318;2023-02-02T04:35:49;101470.72;;;8.55;100.00
3917;BME280;1973;50.518;7.318;2023-02-02T04:38:16;101478.69;;;8.50;100.00
3917;BME280;1973;50.518;7.318;2023-02-02T04:40:45;101477.63;;;8.51;100.00
3917;BME280;1973;50.518;7.318;2023-02-02T04:43:12;101495.50;;;8.47;100.00
3917;BME280;1973;50.518;7.318;2023-02-02T04:45:39;101477.34;;;8.46;100.00
3917;BME280;1973;50.518;7.318;2023-02-02T04:48:05;101480.44;;;8.43;100.00
3917;BME280;1973;50.518;7.318;2023-02-02T04:50:32;101477.69;;;8.43;100.00
3917;BME280;1973;50.518;7.318;2023-02-02T04:52:58;101494.16;;;8.43;100.00
3917;BME280;1973;50.518;7.318;2023-02-02T04:55:25;101494.16;;;8.43;100.00
3917;BME280;1973;50.518;7.318;2023-02-02T04:57:52;101493.31;;;8.42;100.00
3917;BME280;1973;50.518;7.318;2023-02-02T05:00:18;101500.22;;;8.38;100.00
3917;BME280;1973;50.518;7.318;2023-02-02T05:02:45;101492.84;;;8.39;100.00
3917;BME280;1973;50.518;7.318;2023-02-02T05:05:12;101501.41;;;8.36;100.00
3917;BME280;1973;50.518;7.318;2023-02-02T05:07:39;101496.69;;;8.29;100.00
3917;BME280;1973;50.518;7.318;2023-02-02T05:10:07;101494.78;;;8.30;100.00
3917;BME280;1973;50.518;7.318;2023-02-02T05:12:34;101496.69;;;8.29;100.00
3917;BME280;1973;50.518;7.318;2023-02-02T05:15:00;101495.66;;;8.30;100.00
3917;BME280;1973;50.518;7.318;2023-02-02T05:17:28;101499.25;;;8.31;100.00
3917;BME280;1973;50.518;7.318;2023-02-02T05:19:55;101494.41;;;8.33;100.00
3917;BME280;1973;50.518;7.318;2023-02-02T05:22:21;101497.84;;;8.35;100.00
3917;BME280;1973;50.518;7.318;2023-02-02T05:24:48;101495.28;;;8.34;100.00
3917;BME280;1973;50.518;7.318;2023-02-02T05:27:14;101496.13;;;8.34;100.00
3917;BME280;1973;50.518;7.318;2023-02-02T05:29:41;101489.41;;;8.37;100.00
3917;BME280;1973;50.518;7.318;2023-02-02T05:32:07;101493.66;;;8.39;100.00
3917;BME280;1973;50.518;7.318;2023-02-02T05:34:34;101496.25;;;8.41;100.00
3917;BME280;1973;50.518;7.318;2023-02-02T05:37:00;101502.59;;;8.41;100.00
3917;BME280;1973;50.518;7.318;2023-02-02T05:39:26;101500.00;;;8.40;100.00
3917;BME280;1973;50.518;7.318;2023-02-02T05:41:53;101508.94;;;8.42;100.00
3917;BME280;1973;50.518;7.318;2023-02-02T05:44:19;101512.53;;;8.42;100.00
3917;BME280;1973;50.518;7.318;2023-02-02T05:46:46;101510.63;;;8.43;100.00
3917;BME280;1973;50.518;7.318;2023-02-02T05:49:13;101513.56;;;8.41;100.00
3917;BME280;1973;50.518;7.318;2023-02-02T05:51:42;101517.81;;;8.44;100.00
3917;BME280;1973;50.518;7.318;2023-02-02T05:54:10;101508.94;;;8.42;100.00
3917;BME280;1973;50.518;7.318;2023-02-02T05:56:36;101518.69;;;8.44;100.00
3917;BME280;1973;50.518;7.318;2023-02-02T05:59:03;101513.19;;;8.44;100.00
3917;BME280;1973;50.518;7.318;2023-02-02T06:01:32;101514.91;;;8.45;100.00
3917;BME280;1973;50.518;7.318;2023-02-02T06:03:59;101512.34;;;8.44;100.00
3917;BME280;1973;50.518;7.318;2023-02-02T06:06:26;101513.84;;;8.46;100.00
3917;BME280;1973;50.518;7.318;2023-02-02T06:08:52;101501.66;;;8.49;100.00
3917;BME280;1973;50.518;7.318;2023-02-02T06:11:19;101508.88;;;8.50;100.00
3917;BME280;1973;50.518;7.318;2023-02-02T06:13:45;101511.63;;;8.50;100.00
3917;BME280;1973;50.518;7.318;2023-02-02T06:16:12;101510.38;;;8.52;100.00
3917;BME280;1973;50.518;7.318;2023-02-02T06:18:39;101504.50;;;8.55;100.00
3917;BME280;1973;50.518;7.318;2023-02-02T06:21:05;101508.13;;;8.56;100.00
3917;BME280;1973;50.518;7.318;2023-02-02T06:23:33;101512.19;;;8.60;100.00
3917;BME280;1973;50.518;7.318;2023-02-02T06:26:00;101507.56;;;8.60;100.00
3917;BME280;1973;50.518;7.318;2023-02-02T06:28:30;101499.13;;;8.62;100.00
3917;BME280;1973;50.518;7.318;2023-02-02T06:31:03;101500.84;;;8.63;100.00
3917;BME280;1973;50.518;7.318;2023-02-02T06:33:30;101507.19;;;8.63;100.00
3917;BME280;1973;50.518;7.318;2023-02-02T06:36:00;101516.94;;;8.66;100.00
3917;BME280;1973;50.518;7.318;2023-02-02T06:38:27;101514.19;;;8.66;100.00
3917;BME280;1973;50.518;7.318;2023-02-02T06:40:54;101530.28;;;8.69;100.00
3917;BME280;1973;50.518;7.318;2023-02-02T06:43:21;101529.09;;;8.71;100.00
3917;BME280;1973;50.518;7.318;2023-02-02T06:45:47;101531.63;;;8.73;100.00
3917;BME280;1973;50.518;7.318;2023-02-02T06:48:13;101527.84;;;8.74;100.00
3917;BME280;1973;50.518;7.318;2023-02-02T06:50:40;101536.94;;;8.74;100.00
3917;BME280;1973;50.518;7.318;2023-02-02T06:53:06;101541.19;;;8.77;100.00
3917;BME280;1973;50.518;7.318;2023-02-02T06:55:33;101552.66;;;8.80;100.00
3917;BME280;1973;50.518;7.318;2023-02-02T06:58:00;101547.00;;;8.82;100.00
3917;BME280;1973;50.518;7.318;2023-02-02T07:00:28;101552.28;;;8.84;100.00
3917;BME280;1973;50.518;7.318;2023-02-02T07:02:55;101549.38;;;8.85;100.00
3917;BME280;1973;50.518;7.318;2023-02-02T07:05:21;101549.00;;;8.88;100.00
3917;BME280;1973;50.518;7.318;2023-02-02T07:07:50;101549.84;;;8.89;100.00
3917;BME280;1973;50.518;7.318;2023-02-02T07:10:17;101558.75;;;8.91;100.00
3917;BME280;1973;50.518;7.318;2023-02-02T07:13:04;101553.06;;;8.92;100.00
3917;BME280;1973;50.518;7.318;2023-02-02T07:15:33;101551.34;;;8.91;100.00
3917;BME280;1973;50.518;7.318;2023-02-02T07:17:59;101549.28;;;8.93;100.00
3917;BME280;1973;50.518;7.318;2023-02-02T07:20:26;101541.72;;;8.95;100.00
3917;BME280;1973;50.518;7.318;2023-02-02T07:22:53;101554.25;;;8.98;100.00
3917;BME280;1973;50.518;7.318;2023-02-02T07:25:19;101552.53;;;8.97;100.00
3917;BME280;1973;50.518;7.318;2023-02-02T07:27:46;101552.53;;;8.97;100.00
3917;BME280;1973;50.518;7.318;2023-02-02T07:30:13;101563.31;;;8.98;100.00
3917;BME280;1973;50.518;7.318;2023-02-02T07:32:45;101553.00;;;9.00;100.00
3917;BME280;1973;50.518;7.318;2023-02-02T07:35:11;101564.38;;;8.97;100.00
3917;BME280;1973;50.518;7.318;2023-02-02T07:37:38;101547.69;;;8.99;100.00
3917;BME280;1973;50.518;7.318;2023-02-02T07:40:05;101561.25;;;9.00;100.00
3917;BME280;1973;50.518;7.318;2023-02-02T07:42:32;101558.00;;;8.97;100.00
3917;BME280;1973;50.518;7.318;2023-02-02T07:44:59;101558.50;;;9.00;100.00
3917;BME280;1973;50.518;7.318;2023-02-02T07:47:46;101552.63;;;9.03;100.00
3917;BME280;1973;50.518;7.318;2023-02-02T07:50:12;101567.03;;;9.05;100.00
3917;BME280;1973;50.518;7.318;2023-02-02T07:52:39;101563.22;;;9.06;100.00
3917;BME280;1973;50.518;7.318;2023-02-02T07:55:06;101564.78;;;9.09;100.00
3917;BME280;1973;50.518;7.318;2023-02-02T07:57:40;101563.72;;;9.10;100.00
3917;BME280;1973;50.518;7.318;2023-02-02T08:00:07;101562.03;;;9.09;100.00
3917;BME280;1973;50.518;7.318;2023-02-02T08:02:34;101560.78;;;9.11;100.00
3917;BME280;1973;50.518;7.318;2023-02-02T08:05:01;101565.03;;;9.14;100.00
3917;BME280;1973;50.518;7.318;2023-02-02T08:07:27;101568.00;;;9.12;100.00
3917;BME280;1973;50.518;7.318;2023-02-02T08:09:53;101569.28;;;9.16;100.00
3917;BME280;1973;50.518;7.318;2023-02-02T08:12:20;101570.16;;;9.17;100.00
3917;BME280;1973;50.518;7.318;2023-02-02T08:14:50;101573.97;;;9.16;100.00
3917;BME280;1973;50.518;7.318;2023-02-02T08:17:17;101575.84;;;9.15;100.00
3917;BME280;1973;50.518;7.318;2023-02-02T08:19:43;101573.09;;;9.15;100.00
3917;BME280;1973;50.518;7.318;2023-02-02T08:22:10;101569.28;;;9.16;100.00
3917;BME280;1973;50.518;7.318;2023-02-02T08:24:36;101584.09;;;9.15;100.00
3917;BME280;1973;50.518;7.318;2023-02-02T08:27:06;101588.53;;;9.16;100.00
3917;BME280;1973;50.518;7.318;2023-02-02T08:29:35;101590.94;;;9.19;100.00
3917;BME280;1973;50.518;7.318;2023-02-02T08:32:02;101581.63;;;9.20;100.00
3917;BME280;1973;50.518;7.318;2023-02-02T08:34:28;101582.47;;;9.21;100.00
3917;BME280;1973;50.518;7.318;2023-02-02T08:36:55;101587.59;;;9.24;100.00
3917;BME280;1973;50.518;7.318;2023-02-02T08:39:22;101589.78;;;9.28;100.00
3917;BME280;1973;50.518;7.318;2023-02-02T08:41:48;101592.53;;;9.28;100.00
3917;BME280;1973;50.518;7.318;2023-02-02T08:44:15;101597.66;;;9.32;100.00
3917;BME280;1973;50.518;7.318;2023-02-02T08:46:41;101602.31;;;9.31;100.00
3917;BME280;1973;50.518;7.318;2023-02-02T08:49:10;101594.91;;;9.32;100.00
3917;BME280;1973;50.518;7.318;2023-02-02T08:51:37;101590.25;;;9.32;100.00
3917;BME280;1973;50.518;7.318;2023-02-02T08:54:03;101589.41;;;9.32;100.00
3917;BME280;1973;50.518;7.318;2023-02-02T08:56:30;101593.69;;;9.34;100.00
3917;BME280;1973;50.518;7.318;2023-02-02T08:58:57;101600.53;;;9.38;100.00
3917;BME280;1973;50.518;7.318;2023-02-02T09:01:26;101598.59;;;9.39;100.00
3917;BME280;1973;50.518;7.318;2023-02-02T09:03:57;101603.06;;;9.40;100.00
3917;BME280;1973;50.518;7.318;2023-02-02T09:06:35;101599.28;;;9.41;100.00
3917;BME280;1973;50.518;7.318;2023-02-02T09:09:05;101601.00;;;9.42;100.00
3917;BME280;1973;50.518;7.318;2023-02-02T09:11:31;101602.69;;;9.43;100.00
3917;BME280;1973;50.518;7.318;2023-02-02T09:13:58;101606.09;;;9.45;100.00
3917;BME280;1973;50.518;7.318;2023-02-02T09:16:27;101603.53;;;9.43;100.00
3917;BME280;1973;50.518;7.318;2023-02-02T09:18:55;101611.59;;;9.45;100.00
3917;BME280;1973;50.518;7.318;2023-02-02T09:21:22;101619.16;;;9.43;100.00
3917;BME280;1973;50.518;7.318;2023-02-02T09:23:49;101626.75;;;9.41;100.00
3917;BME280;1973;50.518;7.318;2023-02-02T09:28:45;101623.47;;;9.45;100.00
3917;BME280;1973;50.518;7.318;2023-02-02T09:31:13;101625.13;;;9.46;100.00
3917;BME280;1973;50.518;7.318;2023-02-02T09:33:40;101627.72;;;9.48;100.00
3917;BME280;1973;50.518;7.318;2023-02-02T09:38:37;101630.94;;;9.51;100.00
3917;BME280;1973;50.518;7.318;2023-02-02T09:44:12;101643.81;;;9.51;100.00
3917;BME280;1973;50.518;7.318;2023-02-02T09:49:51;101643.16;;;9.49;100.00
3917;BME280;1973;50.518;7.318;2023-02-02T09:52:28;101646.94;;;9.48;100.00
3917;BME280;1973;50.518;7.318;2023-02-02T09:55:02;101655.97;;;9.42;100.00
3917;BME280;1973;50.518;7.318;2023-02-02T09:57:44;101649.13;;;9.38;100.00
3917;BME280;1973;50.518;7.318;2023-02-02T10:00:36;101652.25;;;9.35;100.00
3917;BME280;1973;50.518;7.318;2023-02-02T10:03:11;101675.28;;;9.34;100.00
3917;BME280;1973;50.518;7.318;2023-02-02T10:06:05;101673.94;;;9.29;100.00
3917;BME280;1973;50.518;7.318;2023-02-02T10:08:44;101679.44;;;9.29;100.00
3917;BME280;1973;50.518;7.318;2023-02-02T10:11:28;101675.66;;;9.31;100.00
3917;BME280;1973;50.518;7.318;2023-02-02T10:14:00;101685.88;;;9.37;100.00
3917;BME280;1973;50.518;7.318;2023-02-02T10:16:28;101683.78;;;9.39;100.00
3917;BME280;1973;50.518;7.318;2023-02-02T10:19:02;101688.94;;;9.42;100.00
3917;BME280;1973;50.518;7.318;2023-02-02T10:22:04;101680.31;;;9.45;100.00
3917;BME280;1973;50.518;7.318;2023-02-02T10:24:35;101655.19;;;9.48;100.00
3917;BME280;1973;50.518;7.318;2023-02-02T10:27:04;101690.00;;;9.55;100.00
3917;BME280;1973;50.518;7.318;2023-02-02T10:29:55;101687.19;;;9.63;100.00
3917;BME280;1973;50.518;7.318;2023-02-02T10:32:26;101693.25;;;9.73;100.00
3917;BME280;1973;50.518;7.318;2023-02-02T10:35:06;101681.69;;;9.78;100.00
3917;BME280;1973;50.518;7.318;2023-02-02T10:38:18;101684.06;;;9.81;100.00
3917;BME280;1973;50.518;7.318;2023-02-02T10:40:57;101668.13;;;9.91;100.00
3917;BME280;1973;50.518;7.318;2023-02-02T10:46:23;101669.66;;;10.23;100.00
3917;BME280;1973;50.518;7.318;2023-02-02T10:49:00;101684.78;;;10.48;100.00
3917;BME280;1973;50.518;7.318;2023-02-02T10:51:35;101666.88;;;10.73;100.00
3917;BME280;1973;50.518;7.318;2023-02-02T10:54:06;101679.00;;;10.79;100.00
3917;BME280;1973;50.518;7.318;2023-02-02T10:56:37;101672.97;;;10.90;100.00
3917;BME280;1973;50.518;7.318;2023-02-02T10:59:10;101675.66;;;10.84;100.00
3917;BME280;1973;50.518;7.318;2023-02-02T11:01:38;101683.22;;;10.75;100.00
3917;BME280;1973;50.518;7.318;2023-02-02T11:04:05;101686.09;;;10.67;100.00
3917;BME280;1973;50.518;7.318;2023-02-02T11:06:50;101683.03;;;10.62;100.00
3917;BME280;1973;50.518;7.318;2023-02-02T11:09:20;101680.88;;;10.57;100.00
3917;BME280;1973;50.518;7.318;2023-02-02T11:11:51;101680.00;;;10.57;100.00
3917;BME280;1973;50.518;7.318;2023-02-02T11:14:41;101689.72;;;10.53;100.00
3917;BME280;1973;50.518;7.318;2023-02-02T11:17:29;101701.88;;;10.44;100.00
3917;BME280;1973;50.518;7.318;2023-02-02T11:19:56;101696.38;;;10.44;100.00
3917;BME280;1973;50.518;7.318;2023-02-02T11:24:57;101668.00;;;10.43;100.00
3917;BME280;1973;50.518;7.318;2023-02-02T11:27:29;101688.91;;;10.38;100.00
3917;BME280;1973;50.518;7.318;2023-02-02T11:29:58;101701.88;;;10.44;100.00
3917;BME280;1973;50.518;7.318;2023-02-02T11:35:16;101665.72;;;10.68;100.00
3917;BME280;1973;50.518;7.318;2023-02-02T11:40:34;101679.94;;;10.86;100.00
3917;BME280;1973;50.518;7.318;2023-02-02T11:43:14;101687.75;;;11.04;100.00
3917;BME280;1973;50.518;7.318;2023-02-02T11:45:43;101673.03;;;11.18;100.00
3917;BME280;1973;50.518;7.318;2023-02-02T11:48:16;101683.94;;;11.26;100.00
3917;BME280;1973;50.518;7.318;2023-02-02T11:50:51;101700.47;;;11.26;100.00
3917;BME280;1973;50.518;7.318;2023-02-02T11:53:25;101665.88;;;11.23;100.00
3917;BME280;1973;50.518;7.318;2023-02-02T11:55:53;101676.38;;;11.13;100.00
3917;BME280;1973;50.518;7.318;2023-02-02T11:58:26;101679.81;;;11.15;100.00
3917;BME280;1973;50.518;7.318;2023-02-02T12:01:00;101684.06;;;11.18;100.00
3917;BME280;1973;50.518;7.318;2023-02-02T12:03:34;101685.69;;;11.12;100.00
3917;BME280;1973;50.518;7.318;2023-02-02T12:06:26;101692.81;;;11.00;100.00
3917;BME280;1973;50.518;7.318;2023-02-02T12:09:01;101685.06;;;10.89;100.00
3917;BME280;1973;50.518;7.318;2023-02-02T12:14:30;101694.75;;;10.85;100.00
3917;BME280;1973;50.518;7.318;2023-02-02T12:19:56;101695.00;;;10.69;100.00
3917;BME280;1973;50.518;7.318;2023-02-02T12:30:57;101681.44;;;10.67;100.00
3917;BME280;1973;50.518;7.318;2023-02-02T12:33:33;101684.38;;;10.66;100.00
3917;BME280;1973;50.518;7.318;2023-02-02T12:36:34;101687.06;;;10.59;100.00
3917;BME280;1973;50.518;7.318;2023-02-02T12:39:30;101676.03;;;10.59;100.00
3917;BME280;1973;50.518;7.318;2023-02-02T12:42:04;101694.06;;;10.62;100.00
3917;BME280;1973;50.518;7.318;2023-02-02T12:44:38;101686.47;;;10.64;100.00
3917;BME280;1973;50.518;7.318;2023-02-02T12:50:03;101671.91;;;10.70;100.00
3917;BME280;1973;50.518;7.318;2023-02-02T12:52:43;101679.00;;;10.79;100.00
3917;BME280;1973;50.518;7.318;2023-02-02T12:58:31;101674.91;;;10.90;100.00
3917;BME280;1973;50.518;7.318;2023-02-02T13:03:56;101654.75;;;10.89;100.00
3917;BME280;1973;50.518;7.318;2023-02-02T13:09:44;101682.94;;;10.91;100.00
3917;BME280;1973;50.518;7.318;2023-02-02T13:12:16;101693.97;;;10.91;100.00
3917;BME280;1973;50.518;7.318;2023-02-02T13:15:03;101683.06;;;10.83;100.00
3917;BME280;1973;50.518;7.318;2023-02-02T13:17:39;101686.88;;;10.82;100.00
3917;BME280;1973;50.518;7.318;2023-02-02T13:20:34;101692.41;;;10.82;100.00
3917;BME280;1973;50.518;7.318;2023-02-02T13:23:12;101685.25;;;10.88;100.00
3917;BME280;1973;50.518;7.318;2023-02-02T13:25:45;101701.38;;;10.91;100.00
3917;BME280;1973;50.518;7.318;2023-02-02T13:28:18;101695.97;;;10.97;100.00
3917;BME280;1973;50.518;7.318;2023-02-02T13:30:51;101707.63;;;10.99;100.00
3917;BME280;1973;50.518;7.318;2023-02-02T13:33:23;101719.28;;;11.01;100.00
3917;BME280;1973;50.518;7.318;2023-02-02T13:35:54;101704.22;;;10.97;100.00
3917;BME280;1973;50.518;7.318;2023-02-02T13:38:25;101701.06;;;11.00;100.00
3917;BME280;1973;50.518;7.318;2023-02-02T13:40:54;101703.81;;;11.00;100.00
3917;BME280;1973;50.518;7.318;2023-02-02T13:49:07;101721.06;;;10.88;100.00
3917;BME280;1973;50.518;7.318;2023-02-02T13:56:54;101728.47;;;10.87;100.00
3917;BME280;1973;50.518;7.318;2023-02-02T14:02:16;101723.34;;;10.84;100.00
3917;BME280;1973;50.518;7.318;2023-02-02T14:04:52;101725.69;;;10.87;100.00
3917;BME280;1973;50.518;7.318;2023-02-02T14:07:39;101726.56;;;10.88;100.00
3917;BME280;1973;50.518;7.318;2023-02-02T14:10:28;101726.09;;;10.84;100.00
3917;BME280;1973;50.518;7.318;2023-02-02T14:13:07;101733.13;;;10.87;100.00
3917;BME280;1973;50.518;7.318;2023-02-02T14:15:56;101720.59;;;10.84;100.00
3917;BME280;1973;50.518;7.318;2023-02-02T14:24:36;101732.41;;;10.78;100.00
3917;BME280;1973;50.518;7.318;2023-02-02T14:34:47;101729.25;;;10.81;100.00
3917;BME280;1973;50.518;7.318;2023-02-02T14:45:31;101735.16;;;10.99;100.00
3917;BME280;1973;50.518;7.318;2023-02-02T14:48:16;101723.75;;;11.02;100.00
3917;BME280;1973;50.518;7.318;2023-02-02T14:50:49;101732.03;;;11.02;100.00
3917;BME280;1973;50.518;7.318;2023-02-02T14:55:55;101729.31;;;11.09;100.00
3917;BME280;1973;50.518;7.318;2023-02-02T14:58:30;101728.75;;;11.13;100.00
3917;BME280;1973;50.518;7.318;2023-02-02T15:03:55;101729.88;;;11.19;100.00
3917;BME280;1973;50.518;7.318;2023-02-02T15:14:44;101746.72;;;11.09;100.00
3917;BME280;1973;50.518;7.318;2023-02-02T15:25:49;101766.13;;;11.01;100.00
3917;BME280;1973;50.518;7.318;2023-02-02T15:28:28;101777.16;;;11.01;100.00
3917;BME280;1973;50.518;7.318;2023-02-02T15:33:38;101777.94;;;10.95;100.00
3917;BME280;1973;50.518;7.318;2023-02-02T15:36:26;101782.81;;;10.93;100.00
3917;BME280;1973;50.518;7.318;2023-02-02T15:38:57;101777.94;;;10.95;100.00